Time;durP1;ratioP1;P1;durP2;ratioP2;P2;SDS_P1;SDS_P2;PMS_P1;PMS_P2;Temp;Humidity;BMP_temperature;BMP_pressure;BME280_temperature;BME280_humidity;BME280_pressure;Samples;Min_cycle;Max_cycle;Signal;HPM_P1;HPM_P2
2022/04/13 00:00:16;;;;;;;5.97;4.80;;;16.40;72.00;;;;;;5070156;28;20214;-82
2022/04/13 00:02:42;;;;;;;9.53;5.27;;;16.30;72.10;;;;;;5070338;28;20227;-82
2022/04/13 00:05:09;;;;;;;5.10;4.63;;;16.20;73.60;;;;;;5067877;28;20624;-82
2022/04/13 00:07:35;;;;;;;6.50;5.28;;;16.20;71.80;;;;;;5069314;28;20243;-82
2022/04/13 00:10:02;;;;;;;7.67;4.97;;;16.20;72.30;;;;;;5067481;28;20210;-82
2022/04/13 00:12:28;;;;;;;7.60;5.63;;;16.30;72.60;;;;;;5069543;28;20191;-82
2022/04/13 00:14:54;;;;;;;5.23;4.70;;;16.20;73.10;;;;;;5077356;28;20291;-82
2022/04/13 00:17:22;;;;;;;6.20;5.00;;;16.10;73.80;;;;;;5085038;28;20220;-81
2022/04/13 00:19:47;;;;;;;5.20;4.33;;;16.10;75.50;;;;;;5078455;28;20261;-82
2022/04/13 00:22:13;;;;;;;7.30;4.87;;;16.10;75.10;;;;;;5075137;28;20185;-82
2022/04/13 00:24:39;;;;;;;7.93;5.43;;;16.00;74.50;;;;;;5065905;28;20573;-82
2022/04/13 00:27:04;;;;;;;5.87;5.30;;;16.10;74.50;;;;;;5069498;28;20181;-82
2022/04/13 00:29:30;;;;;;;7.83;6.13;;;16.10;73.10;;;;;;5066240;28;20225;-82
2022/04/13 00:31:59;;;;;;;10.63;6.80;;;16.10;75.20;;;;;;5077094;28;20255;-82
2022/04/13 00:34:25;;;;;;;13.10;6.17;;;16.10;75.30;;;;;;5073594;28;20206;-82
2022/04/13 00:36:51;;;;;;;7.17;5.67;;;16.10;74.70;;;;;;5081217;28;20196;-82
2022/04/13 00:39:17;;;;;;;6.73;6.00;;;15.90;75.70;;;;;;5081643;28;20219;-80
2022/04/13 00:41:43;;;;;;;9.03;6.20;;;15.80;74.80;;;;;;5086975;28;20190;-82
2022/04/13 00:44:10;;;;;;;5.83;5.33;;;15.90;73.70;;;;;;5078047;28;20204;-82
2022/04/13 00:46:37;;;;;;;6.63;5.60;;;16.10;72.80;;;;;;5081235;28;20188;-82
2022/04/13 00:49:04;;;;;;;6.87;6.17;;;16.20;70.90;;;;;;5097969;28;20184;-82
2022/04/13 00:51:30;;;;;;;6.90;6.17;;;16.20;72.20;;;;;;5097269;28;20193;-82
2022/04/13 00:53:57;;;;;;;6.70;5.80;;;16.20;71.40;;;;;;5076706;28;20269;-82
2022/04/13 00:56:25;;;;;;;7.00;6.05;;;16.30;71.50;;;;;;5066530;28;20195;-82
2022/04/13 00:59:06;;;;;;;7.40;6.57;;;16.30;71.40;;;;;;5070032;28;20211;-82
2022/04/13 01:01:34;;;;;;;6.43;5.43;;;16.20;72.80;;;;;;5066382;28;20194;-82
2022/04/13 01:04:00;;;;;;;7.17;5.53;;;16.00;72.90;;;;;;5074210;28;20294;-82
2022/04/13 01:06:27;;;;;;;6.33;5.73;;;16.10;72.40;;;;;;5066918;28;20273;-82
2022/04/13 01:08:55;;;;;;;7.80;6.03;;;16.10;71.60;;;;;;5067081;28;20175;-82
2022/04/13 01:11:22;;;;;;;7.05;5.93;;;16.20;71.70;;;;;;5066069;28;20233;-82
2022/04/13 01:13:47;;;;;;;7.80;6.10;;;16.10;73.10;;;;;;5065697;28;20210;-82
2022/04/13 01:16:13;;;;;;;9.67;5.67;;;16.10;72.40;;;;;;5068124;28;20186;-82
2022/04/13 01:18:39;;;;;;;8.43;5.90;;;16.10;71.80;;;;;;5060582;28;20193;-82
2022/04/13 01:21:10;;;;;;;6.87;5.37;;;15.90;72.30;;;;;;5066160;28;20557;-82
2022/04/13 01:23:35;;;;;;;5.90;5.27;;;15.90;72.30;;;;;;5066241;28;20213;-82
2022/04/13 01:26:01;;;;;;;6.73;5.40;;;15.80;73.30;;;;;;5065824;28;20185;-82
2022/04/13 01:28:27;;;;;;;6.73;5.00;;;15.80;73.20;;;;;;5071579;28;20229;-82
2022/04/13 01:30:52;;;;;;;7.77;5.40;;;15.80;72.60;;;;;;5066107;28;20187;-82
2022/04/13 01:33:18;;;;;;;5.67;5.00;;;15.80;72.40;;;;;;5070306;28;20230;-82
2022/04/13 01:35:44;;;;;;;8.20;5.90;;;15.80;71.80;;;;;;5070443;28;20193;-82
2022/04/13 01:38:10;;;;;;;6.53;5.10;;;15.80;73.30;;;;;;5090638;28;20208;-81
2022/04/13 01:40:36;;;;;;;6.33;5.33;;;15.90;72.40;;;;;;5092448;28;20232;-81
2022/04/13 01:43:02;;;;;;;5.50;5.00;;;15.90;73.10;;;;;;5076250;28;20216;-82
2022/04/13 01:45:27;;;;;;;7.63;4.90;;;15.80;72.30;;;;;;5070583;28;20222;-83
2022/04/13 01:47:53;;;;;;;7.15;5.53;;;15.90;72.90;;;;;;5073353;28;20216;-82
2022/04/13 01:50:20;;;;;;;5.50;4.90;;;15.80;73.40;;;;;;5048114;28;20225;-82
2022/04/13 01:52:47;;;;;;;6.40;5.23;;;15.70;74.50;;;;;;5068842;28;20197;-82
2022/04/13 01:55:13;;;;;;;6.27;5.63;;;15.70;74.60;;;;;;5073951;28;20568;-82
2022/04/13 01:57:40;;;;;;;5.83;5.33;;;15.70;74.00;;;;;;5075225;28;20198;-82
2022/04/13 02:00:08;;;;;;;5.73;5.23;;;15.80;73.60;;;;;;5065938;28;20218;-82
2022/04/13 02:02:34;;;;;;;7.67;4.40;;;15.70;75.30;;;;;;5074794;28;20220;-82
2022/04/13 02:05:00;;;;;;;9.07;5.47;;;15.70;73.70;;;;;;5067543;28;20362;-82
2022/04/13 02:07:27;;;;;;;8.20;4.90;;;15.50;77.00;;;;;;5069559;28;20270;-82
2022/04/13 02:09:55;;;;;;;6.97;4.80;;;15.30;75.50;;;;;;5064753;28;20189;-82
2022/04/13 02:12:20;;;;;;;5.87;5.33;;;15.40;74.20;;;;;;5075502;28;20189;-82
2022/04/13 02:14:46;;;;;;;5.90;4.87;;;15.30;76.10;;;;;;5076684;28;20309;-82
2022/04/13 02:17:16;;;;;;;6.50;4.67;;;15.40;75.50;;;;;;5081565;28;20186;-81
2022/04/13 02:19:45;;;;;;;7.43;5.23;;;15.40;73.80;;;;;;5068253;28;20262;-81
2022/04/13 02:22:10;;;;;;;7.53;4.53;;;15.30;75.90;;;;;;5067560;28;20272;-81
2022/04/13 02:24:38;;;;;;;5.50;4.87;;;15.30;75.30;;;;;;5071888;28;20622;-81
2022/04/13 02:27:04;;;;;;;6.87;5.13;;;15.30;76.20;;;;;;5071099;28;20180;-81
2022/04/13 02:29:30;;;;;;;5.77;5.27;;;15.30;77.20;;;;;;5077129;28;20237;-81
2022/04/13 02:31:55;;;;;;;5.43;4.93;;;15.20;77.50;;;;;;5072226;28;20191;-81
2022/04/13 02:34:21;;;;;;;6.67;5.43;;;15.20;76.80;;;;;;5069653;28;20735;-81
2022/04/13 02:36:46;;;;;;;6.67;4.80;;;15.30;75.90;;;;;;5077223;28;20199;-81
2022/04/13 02:39:12;;;;;;;7.13;5.30;;;15.20;75.60;;;;;;5111252;22;20210;-83
2022/04/13 02:41:39;;;;;;;4.90;4.47;;;15.20;75.20;;;;;;5082615;28;20190;-83
2022/04/13 02:44:05;;;;;;;5.17;4.67;;;15.10;76.10;;;;;;5073455;28;20684;-83
2022/04/13 02:46:31;;;;;;;4.90;4.47;;;15.20;77.10;;;;;;5073992;28;20597;-83
2022/04/13 02:48:56;;;;;;;7.93;5.33;;;15.10;77.10;;;;;;5071595;28;20211;-81
2022/04/13 02:51:22;;;;;;;5.43;4.93;;;15.10;77.60;;;;;;5090613;28;20190;-82
2022/04/13 02:53:48;;;;;;;5.20;4.80;;;14.90;78.10;;;;;;5094090;28;20644;-82
2022/04/13 02:56:14;;;;;;;5.67;5.17;;;14.90;77.70;;;;;;5089720;28;20191;-83
2022/04/13 02:58:39;;;;;;;7.03;4.90;;;14.90;77.90;;;;;;5088745;28;20251;-82
2022/04/13 03:01:06;;;;;;;5.43;4.70;;;14.90;77.20;;;;;;5092228;28;20249;-83
2022/04/13 03:03:33;;;;;;;5.40;4.90;;;14.80;77.40;;;;;;5092381;28;20190;-83
2022/04/13 03:05:58;;;;;;;5.63;5.20;;;14.90;77.60;;;;;;5093814;28;20243;-84
2022/04/13 03:08:25;;;;;;;6.00;5.17;;;14.90;77.50;;;;;;5093770;28;20203;-83
2022/04/13 03:10:51;;;;;;;6.33;5.23;;;14.80;77.10;;;;;;5084247;28;20214;-82
2022/04/13 03:13:17;;;;;;;5.47;4.37;;;14.80;76.50;;;;;;5076993;28;20255;-82
2022/04/13 03:15:42;;;;;;;5.57;5.00;;;14.90;76.70;;;;;;5084197;28;20214;-83
2022/04/13 03:18:08;;;;;;;6.33;5.43;;;14.90;76.30;;;;;;5070869;28;20184;-83
2022/04/13 03:20:35;;;;;;;5.93;5.43;;;14.90;76.10;;;;;;5095747;28;20249;-83
2022/04/13 03:23:01;;;;;;;8.27;5.07;;;14.80;76.90;;;;;;5074625;28;20189;-82
2022/04/13 03:25:27;;;;;;;5.43;4.90;;;14.70;77.50;;;;;;5096304;28;20176;-83
2022/04/13 03:27:53;;;;;;;5.57;4.97;;;14.90;77.20;;;;;;5090425;28;20233;-82
2022/04/13 03:30:19;;;;;;;8.33;4.80;;;14.80;77.00;;;;;;5095819;28;20202;-82
2022/04/13 03:32:45;;;;;;;5.17;4.67;;;14.90;76.10;;;;;;5094427;28;20190;-81
2022/04/13 03:35:11;;;;;;;5.40;5.00;;;14.80;75.50;;;;;;5091768;28;20842;-83
2022/04/13 03:37:38;;;;;;;4.93;4.40;;;14.80;75.70;;;;;;5096450;28;20181;-82
2022/04/13 03:40:09;;;;;;;8.37;5.20;;;14.90;75.40;;;;;;5090410;28;20216;-83
2022/04/13 03:42:39;;;;;;;5.63;5.00;;;14.90;75.20;;;;;;5080977;28;20194;-83
2022/04/13 03:45:07;;;;;;;6.17;4.83;;;14.90;75.10;;;;;;5089107;28;20189;-82
2022/04/13 03:47:33;;;;;;;5.70;4.60;;;14.80;75.70;;;;;;5092718;28;20183;-83
2022/04/13 03:49:59;;;;;;;7.87;5.13;;;14.70;75.80;;;;;;5088767;28;20214;-83
2022/04/13 03:52:25;;;;;;;5.27;4.77;;;14.60;76.30;;;;;;5081964;28;20218;-84
2022/04/13 03:54:51;;;;;;;5.17;4.67;;;14.60;75.70;;;;;;5088664;28;20175;-84
2022/04/13 03:57:32;;;;;;;5.83;4.83;;;14.60;76.70;;;;;;5088570;28;20184;-83
2022/04/13 03:59:58;;;;;;;6.50;4.77;;;14.50;76.10;;;;;;5093487;28;20214;-81
2022/04/13 04:02:24;;;;;;;6.30;4.60;;;14.50;76.20;;;;;;5090840;28;20258;-83
2022/04/13 04:04:50;;;;;;;7.07;5.37;;;14.50;75.90;;;;;;5098754;28;20181;-83
2022/04/13 04:07:16;;;;;;;5.83;4.70;;;14.40;76.90;;;;;;5110118;28;20298;-83
2022/04/13 04:09:43;;;;;;;5.70;5.03;;;14.40;76.20;;;;;;5093185;28;20250;-82
2022/04/13 04:12:09;;;;;;;9.00;5.57;;;14.30;76.90;;;;;;5097494;28;20187;-83
2022/04/13 04:14:35;;;;;;;7.00;5.63;;;14.40;77.20;;;;;;5093093;28;20219;-81
2022/04/13 04:17:01;;;;;;;5.80;5.20;;;14.30;77.10;;;;;;5104299;28;20197;-81
2022/04/13 04:19:27;;;;;;;6.20;4.80;;;14.30;77.20;;;;;;5110756;28;20218;-81
2022/04/13 04:21:54;;;;;;;4.90;4.50;;;14.30;76.70;;;;;;5083911;28;20199;-81
2022/04/13 04:24:20;;;;;;;7.10;4.90;;;14.30;75.90;;;;;;5094468;28;20258;-82
2022/04/13 04:26:46;;;;;;;8.93;4.73;;;14.30;76.50;;;;;;5090130;28;20183;-82
2022/04/13 04:29:12;;;;;;;6.67;4.90;;;14.30;75.40;;;;;;5093860;28;21111;-83
2022/04/13 04:31:49;;;;;;;5.30;4.80;;;14.20;76.70;;;;;;5086657;28;20440;-82
2022/04/13 04:34:16;;;;;;;5.00;4.50;;;14.20;76.70;;;;;;5088683;28;20187;-82
2022/04/13 04:36:42;;;;;;;7.40;4.70;;;14.20;75.90;;;;;;5096663;28;20261;-80
2022/04/13 04:39:08;;;;;;;6.80;4.63;;;14.20;75.90;;;;;;5090849;28;20222;-83
2022/04/13 04:41:34;;;;;;;5.20;4.70;;;14.10;76.10;;;;;;5090750;28;20190;-81
2022/04/13 04:44:00;;;;;;;5.77;4.80;;;14.00;76.40;;;;;;5093378;28;20202;-82
2022/04/13 04:46:26;;;;;;;5.30;4.80;;;14.00;76.30;;;;;;5092505;28;20202;-82
2022/04/13 04:48:52;;;;;;;6.57;4.70;;;13.90;76.80;;;;;;5101055;28;20181;-84
2022/04/13 04:51:19;;;;;;;5.73;4.63;;;13.90;77.60;;;;;;5070181;28;20713;-83
2022/04/13 04:53:47;;;;;;;6.10;5.47;;;13.90;77.50;;;;;;5088639;28;20545;-83
2022/04/13 04:56:13;;;;;;;6.87;4.87;;;13.80;79.10;;;;;;5096408;28;20194;-83
2022/04/13 04:58:39;;;;;;;6.67;5.00;;;13.70;78.60;;;;;;5084529;28;20212;-83
2022/04/13 05:01:04;;;;;;;5.73;5.10;;;13.80;78.60;;;;;;5088523;28;20207;-82
2022/04/13 05:03:31;;;;;;;5.70;5.20;;;13.80;77.90;;;;;;5099520;28;20218;-83
2022/04/13 05:05:56;;;;;;;6.47;4.70;;;13.90;77.90;;;;;;5080894;28;20189;-84
2022/04/13 05:08:22;;;;;;;5.00;4.60;;;13.90;78.30;;;;;;5094960;28;20183;-83
2022/04/13 05:10:51;;;;;;;5.83;5.33;;;14.00;78.10;;;;;;5080911;28;20233;-83
2022/04/13 05:13:20;;;;;;;6.20;5.00;;;14.00;78.10;;;;;;5087984;28;20183;-83
2022/04/13 05:15:46;;;;;;;5.83;5.17;;;14.00;77.70;;;;;;5090270;28;20190;-83
2022/04/13 05:18:13;;;;;;;8.60;5.53;;;14.00;77.90;;;;;;5088857;28;20205;-82
2022/04/13 05:20:39;;;;;;;11.53;5.67;;;14.00;77.90;;;;;;5088574;28;20290;-83
2022/04/13 05:23:05;;;;;;;10.70;4.73;;;14.00;78.40;;;;;;5093428;28;20190;-83
2022/04/13 05:25:31;;;;;;;5.53;4.60;;;14.00;78.30;;;;;;5093452;28;20186;-82
2022/04/13 05:27:56;;;;;;;8.33;5.37;;;14.10;77.60;;;;;;5096007;28;20182;-82
2022/04/13 05:30:22;;;;;;;6.93;5.07;;;14.00;78.40;;;;;;5092460;28;20254;-82
2022/04/13 05:32:58;;;;;;;15.80;6.10;;;14.10;78.00;;;;;;5086439;28;20188;-83
2022/04/13 05:35:27;;;;;;;6.47;5.00;;;14.10;78.50;;;;;;5092178;28;20202;-82
2022/04/13 05:37:54;;;;;;;10.00;6.10;;;14.10;78.70;;;;;;5095091;28;20198;-82
2022/04/13 05:40:21;;;;;;;7.63;5.50;;;14.10;80.00;;;;;;5098118;28;20224;-83
2022/04/13 05:42:48;;;;;;;7.17;5.20;;;14.00;80.40;;;;;;5081081;28;20176;-83
2022/04/13 05:45:15;;;;;;;8.80;5.03;;;14.00;80.60;;;;;;5100429;28;20189;-82
2022/04/13 05:47:42;;;;;;;15.77;5.07;;;13.90;80.50;;;;;;5080792;28;20174;-81
2022/04/13 05:50:09;;;;;;;11.00;5.57;;;14.00;82.20;;;;;;5103082;28;20205;-83
2022/04/13 05:52:35;;;;;;;5.80;5.03;;;13.80;83.80;;;;;;5100613;28;20193;-83
2022/04/13 05:55:02;;;;;;;5.17;4.77;;;13.90;83.10;;;;;;5090284;28;20191;-83
2022/04/13 05:57:28;;;;;;;9.13;5.50;;;14.00;82.80;;;;;;5098356;28;20182;-84
2022/04/13 05:59:53;;;;;;;5.30;4.90;;;14.10;82.50;;;;;;5103301;28;20220;-82
2022/04/13 06:02:20;;;;;;;8.17;5.80;;;14.20;81.90;;;;;;5099616;28;20183;-83
2022/04/13 06:04:46;;;;;;;8.23;5.20;;;14.20;82.40;;;;;;5094090;28;20174;-82
2022/04/13 06:07:12;;;;;;;11.40;5.53;;;14.40;80.50;;;;;;5073947;28;20198;-82
2022/04/13 06:09:38;;;;;;;8.03;5.30;;;14.50;81.00;;;;;;5097142;28;20293;-82
2022/04/13 06:12:04;;;;;;;5.83;4.93;;;14.40;83.20;;;;;;5097829;28;20192;-81
2022/04/13 06:14:30;;;;;;;8.93;5.47;;;14.50;82.20;;;;;;5100254;28;20213;-82
2022/04/13 06:16:55;;;;;;;8.13;5.53;;;14.50;82.90;;;;;;5095665;28;20190;-81
2022/04/13 06:19:21;;;;;;;6.97;5.40;;;14.20;84.40;;;;;;5080380;28;20211;-81
2022/04/13 06:21:47;;;;;;;6.83;5.50;;;14.20;84.10;;;;;;5093528;28;20190;-82
2022/04/13 06:24:13;;;;;;;9.37;5.73;;;14.30;82.20;;;;;;5080445;28;20179;-82
2022/04/13 06:26:38;;;;;;;6.83;5.27;;;14.40;77.30;;;;;;5094138;28;20206;-82
2022/04/13 06:29:04;;;;;;;8.97;5.50;;;14.50;76.80;;;;;;5094764;28;20221;-82
2022/04/13 06:31:31;;;;;;;6.03;5.43;;;14.60;76.10;;;;;;5083256;28;20190;-83
2022/04/13 06:33:57;;;;;;;9.50;5.83;;;14.50;77.70;;;;;;5096141;28;20702;-83
2022/04/13 06:36:23;;;;;;;6.97;5.43;;;14.50;77.50;;;;;;5095055;28;20206;-83
2022/04/13 06:38:48;;;;;;;6.23;5.20;;;14.50;76.10;;;;;;5093752;28;20206;-82
2022/04/13 06:41:14;;;;;;;7.83;5.30;;;14.60;74.90;;;;;;5089055;28;20366;-82
2022/04/13 06:43:40;;;;;;;7.13;5.20;;;14.70;75.20;;;;;;5094909;28;20200;-82
2022/04/13 06:46:07;;;;;;;8.73;5.80;;;14.90;74.80;;;;;;5095102;28;20194;-82
2022/04/13 06:48:33;;;;;;;10.43;5.97;;;15.00;74.90;;;;;;5079601;28;20175;-82
2022/04/13 06:51:00;;;;;;;8.30;5.47;;;15.10;74.60;;;;;;5094162;28;20237;-81
2022/04/13 06:53:26;;;;;;;6.20;5.57;;;15.30;74.60;;;;;;5095169;28;20254;-82
2022/04/13 06:55:52;;;;;;;9.97;5.47;;;15.30;75.20;;;;;;5097044;28;20389;-83
2022/04/13 06:58:20;;;;;;;6.50;4.97;;;15.40;74.90;;;;;;5097516;28;20205;-83
2022/04/13 07:00:47;;;;;;;5.37;4.60;;;15.30;74.20;;;;;;5095063;28;20314;-82
2022/04/13 07:03:12;;;;;;;7.50;5.33;;;15.40;74.00;;;;;;5100092;28;20186;-81
2022/04/13 07:05:38;;;;;;;7.00;4.97;;;15.40;73.10;;;;;;5099643;28;20185;-84
2022/04/13 07:08:05;;;;;;;6.13;4.80;;;15.50;73.50;;;;;;5074818;28;20204;-83
2022/04/13 07:10:32;;;;;;;8.47;4.87;;;15.50;73.10;;;;;;5095507;28;20246;-83
2022/04/13 07:12:58;;;;;;;5.47;4.83;;;15.70;72.70;;;;;;5078811;28;20198;-84
2022/04/13 07:15:24;;;;;;;7.83;5.40;;;15.70;72.50;;;;;;5083599;28;20190;-83
2022/04/13 07:17:50;;;;;;;4.83;4.43;;;15.70;73.90;;;;;;5096765;28;20526;-82
2022/04/13 07:20:17;;;;;;;5.50;4.57;;;15.70;73.50;;;;;;5090101;28;20228;-83
2022/04/13 07:22:53;;;;;;;7.37;4.83;;;15.80;72.30;;;;;;5093614;28;20180;-84
2022/04/13 07:25:20;;;;;;;4.87;4.40;;;16.00;70.50;;;;;;5092851;28;20188;-83
2022/04/13 07:27:47;;;;;;;9.20;4.83;;;15.90;70.50;;;;;;5092757;28;20188;-81
2022/04/13 07:30:14;;;;;;;7.87;4.70;;;15.80;71.20;;;;;;5068107;28;20470;-82
2022/04/13 07:32:42;;;;;;;7.60;4.77;;;15.80;71.30;;;;;;5091402;28;20648;-82
2022/04/13 07:35:08;;;;;;;9.35;4.47;;;15.90;70.20;;;;;;5087181;28;20763;-84
2022/04/13 07:37:34;;;;;;;6.15;4.18;;;16.20;68.40;;;;;;5075705;28;20198;-83
2022/04/13 07:40:00;;;;;;;8.80;5.10;;;16.20;68.20;;;;;;5090807;28;20236;-83
2022/04/13 07:42:27;;;;;;;5.20;4.33;;;16.30;68.50;;;;;;5083201;28;20191;-81
2022/04/13 07:44:53;;;;;;;7.57;4.70;;;16.30;68.00;;;;;;5091207;28;20185;-83
2022/04/13 07:47:22;;;;;;;5.90;4.47;;;16.40;66.30;;;;;;5089010;28;20597;-81
2022/04/13 07:49:49;;;;;;;5.60;4.40;;;16.60;65.50;;;;;;5077252;28;20214;-83
2022/04/13 07:52:16;;;;;;;9.60;4.78;;;16.70;64.60;;;;;;5097908;28;20189;-83
2022/04/13 07:54:44;;;;;;;4.93;3.80;;;16.70;64.50;;;;;;5105700;28;20193;-82
2022/04/13 07:57:10;;;;;;;6.25;4.03;;;16.90;62.10;;;;;;5082234;28;20182;-83
2022/04/13 07:59:36;;;;;;;7.07;3.95;;;16.90;62.50;;;;;;5084563;28;20649;-82
2022/04/13 08:02:02;;;;;;;7.45;4.40;;;16.80;63.30;;;;;;5091440;28;20194;-84
2022/04/13 08:04:28;;;;;;;6.18;4.22;;;17.00;64.00;;;;;;5090441;28;20183;-81
2022/04/13 08:06:54;;;;;;;8.23;4.43;;;17.00;63.50;;;;;;5095271;28;20198;-82
2022/04/13 08:09:20;;;;;;;9.32;4.63;;;16.90;63.50;;;;;;5105339;28;20252;-81
2022/04/13 08:11:46;;;;;;;5.45;4.55;;;17.10;64.90;;;;;;5085329;28;20181;-83
2022/04/13 08:14:12;;;;;;;4.72;4.20;;;17.30;64.40;;;;;;5097808;28;20194;-84
2022/04/13 08:16:37;;;;;;;5.50;4.63;;;17.20;63.30;;;;;;5092986;28;20191;-84
2022/04/13 08:19:05;;;;;;;5.93;4.22;;;17.30;64.00;;;;;;5088189;28;20633;-83
2022/04/13 08:21:32;;;;;;;6.85;4.47;;;17.50;60.50;;;;;;5091531;28;20218;-81
2022/04/13 08:23:57;;;;;;;4.75;3.70;;;17.70;58.60;;;;;;5089531;28;20695;-84
2022/04/13 08:26:23;;;;;;;11.40;4.20;;;17.80;58.30;;;;;;5082202;28;20246;-83
2022/04/13 08:28:48;;;;;;;4.68;3.80;;;17.90;59.00;;;;;;5089315;28;20205;-82
2022/04/13 08:31:14;;;;;;;7.75;4.05;;;18.10;56.30;;;;;;5083387;28;20222;-82
2022/04/13 08:33:40;;;;;;;6.03;4.05;;;18.20;56.00;;;;;;5092656;28;20190;-84
2022/04/13 08:36:05;;;;;;;8.00;4.07;;;18.40;54.00;;;;;;5090673;28;20198;-83
2022/04/13 08:38:31;;;;;;;4.68;3.42;;;18.50;50.20;;;;;;5091197;28;20197;-82
2022/04/13 08:41:01;;;;;;;11.40;4.32;;;18.80;48.90;;;;;;5091406;28;20215;-81
2022/04/13 08:44:01;;;;;;;7.15;3.72;;;18.90;48.60;;;;;;5087562;28;20189;-83
2022/04/13 08:46:27;;;;;;;7.13;4.38;;;19.30;49.20;;;;;;5093728;28;20185;-82
2022/04/13 08:48:56;;;;;;;5.82;3.70;;;19.30;51.60;;;;;;5110807;28;20587;-80
2022/04/13 08:51:24;;;;;;;5.18;3.72;;;19.30;48.60;;;;;;5087653;28;20300;-83
2022/04/13 08:54:08;;;;;;;5.90;3.53;;;19.50;48.50;;;;;;5089773;28;20233;-83
2022/04/13 08:56:39;;;;;;;5.28;3.35;;;19.40;46.60;;;;;;5091342;28;20189;-82
2022/04/13 08:59:55;;;;;;;6.30;3.53;;;19.50;46.80;;;;;;5089253;28;20188;-83
2022/04/13 09:02:20;;;;;;;4.82;3.20;;;19.50;47.10;;;;;;5055522;28;20188;-83
2022/04/13 09:04:48;;;;;;;8.65;3.42;;;19.60;46.20;;;;;;5097270;28;20220;-82
2022/04/13 09:07:17;;;;;;;7.95;3.75;;;19.70;46.40;;;;;;5096100;28;20221;-83
2022/04/13 09:09:49;;;;;;;4.10;3.28;;;19.90;46.60;;;;;;5088536;28;20219;-83
2022/04/13 09:12:18;;;;;;;5.72;3.00;;;20.00;42.90;;;;;;5091145;28;20658;-84
2022/04/13 09:14:45;;;;;;;6.53;3.00;;;20.20;39.30;;;;;;5088880;28;20183;-83
2022/04/13 09:17:11;;;;;;;8.95;3.40;;;20.40;40.00;;;;;;5092385;28;20716;-84
2022/04/13 09:19:38;;;;;;;5.18;3.03;;;20.50;38.60;;;;;;5096774;28;20221;-83
2022/04/13 09:22:09;;;;;;;11.55;3.63;;;20.60;38.80;;;;;;5080952;28;20353;-82
2022/04/13 09:24:37;;;;;;;4.55;2.90;;;20.90;38.50;;;;;;5083707;28;20268;-83
2022/04/13 09:27:04;;;;;;;3.92;2.72;;;21.10;37.70;;;;;;5093765;28;20944;-83
2022/04/13 09:29:29;;;;;;;7.07;2.90;;;21.10;36.60;;;;;;5096564;28;20218;-81
2022/04/13 09:31:55;;;;;;;6.97;3.15;;;21.30;35.80;;;;;;5095073;28;20175;-83
2022/04/13 09:34:21;;;;;;;5.25;3.05;;;21.40;35.00;;;;;;5093344;28;20194;-83
2022/04/13 09:36:47;;;;;;;7.32;3.13;;;21.50;35.40;;;;;;5096084;28;20179;-82
2022/04/13 09:39:15;;;;;;;5.95;3.22;;;21.40;35.10;;;;;;5097245;28;20739;-83
2022/04/13 09:41:41;;;;;;;3.28;2.92;;;21.40;36.50;;;;;;5099155;28;20201;-81
2022/04/13 09:44:13;;;;;;;3.42;3.03;;;21.40;36.10;;;;;;5102446;28;20185;-85
2022/04/13 09:46:41;;;;;;;4.82;3.30;;;21.40;37.20;;;;;;5098274;28;20194;-84
2022/04/13 09:49:07;;;;;;;5.32;3.25;;;21.60;36.50;;;;;;5094415;28;20175;-84
2022/04/13 09:51:46;;;;;;;5.75;3.20;;;22.00;37.90;;;;;;5089899;28;20184;-83
2022/04/13 09:54:12;;;;;;;4.50;2.97;;;21.80;36.20;;;;;;5092133;28;20270;-83
2022/04/13 09:56:44;;;;;;;6.85;3.35;;;21.90;35.50;;;;;;5099941;28;20210;-83
2022/04/13 09:59:10;;;;;;;4.45;3.40;;;22.10;35.50;;;;;;5098033;28;20184;-82
2022/04/13 10:01:37;;;;;;;5.93;3.25;;;21.90;36.50;;;;;;5091668;28;20247;-83
2022/04/13 10:04:03;;;;;;;5.90;3.40;;;22.10;36.80;;;;;;5093318;28;20172;-83
2022/04/13 10:06:35;;;;;;;4.90;3.35;;;22.00;37.30;;;;;;5094098;28;20191;-83
2022/04/13 10:09:06;;;;;;;3.33;3.03;;;21.90;37.70;;;;;;5092074;28;20257;-84
2022/04/13 10:11:32;;;;;;;3.90;3.05;;;22.10;36.10;;;;;;5091742;28;20187;-82
2022/04/13 10:14:04;;;;;;;3.72;3.08;;;22.30;36.80;;;;;;5088945;28;20175;-83
2022/04/13 10:16:34;;;;;;;5.07;3.40;;;22.10;37.70;;;;;;5091312;28;20187;-83
2022/04/13 10:19:02;;;;;;;10.80;3.53;;;22.40;38.10;;;;;;5091234;28;20191;-83
2022/04/13 10:21:49;;;;;;;3.75;3.40;;;22.90;36.20;;;;;;5091478;28;20239;-83
2022/04/13 10:24:30;;;;;;;4.60;3.00;;;23.30;35.90;;;;;;5102959;28;20221;-83
2022/04/13 10:27:03;;;;;;;6.32;3.70;;;23.50;34.80;;;;;;5093278;28;20179;-83
2022/04/13 10:29:33;;;;;;;5.07;3.38;;;23.70;34.70;;;;;;5075704;28;20210;-84
2022/04/13 10:32:18;;;;;;;5.38;3.50;;;23.70;34.50;;;;;;5092883;28;20187;-84
2022/04/13 10:34:46;;;;;;;5.53;3.42;;;23.40;34.70;;;;;;5098631;28;20341;-84
2022/04/13 10:37:14;;;;;;;7.78;3.45;;;23.60;34.40;;;;;;5095940;28;20190;-83
2022/04/13 10:39:41;;;;;;;5.75;3.30;;;23.60;34.20;;;;;;5090616;28;20225;-85
2022/04/13 10:42:09;;;;;;;5.82;3.05;;;23.80;34.40;;;;;;5090916;28;20324;-84
2022/04/13 10:44:38;;;;;;;6.85;3.35;;;24.10;33.50;;;;;;5094489;28;20646;-83
2022/04/13 10:47:09;;;;;;;6.90;3.05;;;24.60;32.80;;;;;;5062090;28;20183;-83
2022/04/13 10:49:58;;;;;;;7.03;3.38;;;24.50;32.20;;;;;;5081898;28;20229;-85
2022/04/13 10:52:31;;;;;;;4.65;3.55;;;24.50;34.00;;;;;;5085446;28;20172;-84
2022/04/13 10:55:10;;;;;;;6.03;3.47;;;24.60;33.20;;;;;;5082825;28;20238;-83
2022/04/13 10:57:39;;;;;;;3.95;3.20;;;24.90;33.00;;;;;;5089566;28;20187;-85
2022/04/13 11:00:06;;;;;;;8.52;3.45;;;25.20;31.80;;;;;;5089798;28;20210;-83
2022/04/13 11:02:58;;;;;;;6.13;3.55;;;25.40;30.70;;;;;;5062745;28;20282;-84
2022/04/13 11:05:27;;;;;;;7.70;4.03;;;25.40;31.70;;;;;;5082915;28;20186;-84
2022/04/13 11:08:25;;;;;;;4.10;3.03;;;25.20;32.30;;;;;;5084781;28;20196;-83
2022/04/13 11:10:52;;;;;;;4.78;3.13;;;25.50;31.20;;;;;;5054193;28;20308;-83
2022/04/13 11:13:19;;;;;;;9.68;3.75;;;25.70;30.80;;;;;;5066410;28;20180;-83
2022/04/13 11:15:46;;;;;;;7.55;3.83;;;25.50;32.80;;;;;;5082592;28;20188;-84
2022/04/13 11:18:20;;;;;;;7.15;4.10;;;25.70;32.20;;;;;;5078015;28;20193;-82
2022/04/13 11:21:06;;;;;;;6.13;4.53;;;25.60;32.50;;;;;;5093695;28;20677;-85
2022/04/13 11:23:49;;;;;;;4.18;3.40;;;25.30;32.80;;;;;;5092130;28;20210;-83
2022/04/13 11:26:35;;;;;;;6.85;4.40;;;25.70;31.80;;;;;;5097355;28;20193;-83
2022/04/13 11:29:10;;;;;;;9.48;4.40;;;25.80;31.40;;;;;;5077369;28;20230;-85
2022/04/13 11:32:18;;;;;;;5.35;4.10;;;26.00;32.00;;;;;;5086837;28;20184;-82
2022/04/13 11:34:49;;;;;;;10.82;4.07;;;26.30;29.80;;;;;;5057138;28;20725;-83
2022/04/13 11:37:23;;;;;;;8.88;3.95;;;26.40;29.80;;;;;;5096668;28;20175;-83
2022/04/13 11:39:59;;;;;;;7.13;3.85;;;26.70;29.80;;;;;;5070837;28;20223;-83
2022/04/13 11:42:38;;;;;;;4.32;3.30;;;26.60;30.00;;;;;;5083174;28;20249;-83
2022/04/13 11:45:06;;;;;;;5.15;3.78;;;26.30;29.90;;;;;;5087171;28;20176;-83
2022/04/13 11:47:52;;;;;;;14.35;4.45;;;26.70;29.50;;;;;;5099993;28;20170;-83
2022/04/13 11:50:17;;;;;;;5.35;3.72;;;26.90;29.20;;;;;;5085755;28;20232;-83
2022/04/13 11:53:08;;;;;;;7.97;4.00;;;26.60;29.90;;;;;;5082813;28;20576;-83
2022/04/13 11:55:40;;;;;;;6.43;4.18;;;27.00;29.90;;;;;;5085307;28;20230;-82
2022/04/13 11:58:09;;;;;;;5.50;3.80;;;27.10;29.10;;;;;;5083160;28;20203;-83
2022/04/13 12:00:38;;;;;;;8.75;4.10;;;27.20;29.00;;;;;;5076064;28;20700;-82
2022/04/13 12:03:17;;;;;;;8.60;3.78;;;27.60;28.90;;;;;;5077317;28;20189;-84
2022/04/13 12:05:48;;;;;;;8.15;3.67;;;27.80;28.10;;;;;;5078228;28;20282;-83
2022/04/13 12:08:25;;;;;;;14.15;4.25;;;28.00;28.00;;;;;;5085455;28;20172;-84
2022/04/13 12:11:00;;;;;;;5.53;3.80;;;27.90;28.10;;;;;;5077282;28;20245;-83
2022/04/13 12:13:27;;;;;;;5.78;3.63;;;28.20;28.90;;;;;;5093543;28;20178;-83
2022/04/13 12:15:55;;;;;;;10.32;3.88;;;28.20;28.30;;;;;;5071658;28;20182;-82
2022/04/13 12:18:23;;;;;;;5.10;3.72;;;28.20;29.20;;;;;;5089464;28;20329;-82
2022/04/13 12:20:50;;;;;;;8.90;4.03;;;28.20;29.40;;;;;;5086511;28;20261;-82
2022/04/13 12:23:20;;;;;;;11.77;4.35;;;28.40;27.30;;;;;;5080879;28;20886;-84
2022/04/13 12:25:48;;;;;;;5.38;3.67;;;28.30;27.70;;;;;;5091764;28;20190;-84
2022/04/13 12:28:14;;;;;;;10.07;3.80;;;28.40;28.20;;;;;;5087798;28;20210;-83
2022/04/13 12:30:40;;;;;;;7.72;3.83;;;28.60;27.50;;;;;;5092093;28;20207;-83
2022/04/13 12:33:22;;;;;;;9.15;4.65;;;28.80;27.30;;;;;;5098706;28;20255;-83
2022/04/13 12:35:58;;;;;;;7.15;4.05;;;29.00;27.00;;;;;;5097642;28;20184;-84
2022/04/13 12:38:28;;;;;;;11.65;3.90;;;29.00;27.00;;;;;;5087555;28;20231;-84
2022/04/13 12:41:11;;;;;;;4.60;3.90;;;29.30;26.60;;;;;;5094223;28;20227;-83
2022/04/13 12:44:01;;;;;;;6.45;3.75;;;29.20;27.60;;;;;;5087426;28;20246;-83
2022/04/13 12:46:29;;;;;;;9.57;4.45;;;29.40;27.10;;;;;;5098328;28;20208;-83
2022/04/13 12:48:58;;;;;;;7.20;4.28;;;29.40;27.10;;;;;;5096982;28;20179;-86
2022/04/13 12:51:28;;;;;;;5.32;4.00;;;29.40;27.10;;;;;;5080028;28;20218;-84